createdAt,value
2017-11-01T00:01:22.965Z,100494.16
2017-11-01T00:03:49.297Z,100490.08
2017-11-01T00:06:15.617Z,100482.60
2017-11-01T00:08:42.649Z,100484.48
2017-11-01T00:11:08.937Z,100484.95
2017-11-01T00:13:35.303Z,100484.58
2017-11-01T00:16:01.637Z,100480.98
2017-11-01T00:18:28.008Z,100476.27
2017-11-01T00:20:54.438Z,100480.61
2017-11-01T00:23:20.842Z,100478.08
2017-11-01T00:25:47.166Z,100471.16
2017-11-01T00:28:13.491Z,100468.92
2017-11-01T00:30:39.810Z,100463.22
2017-11-01T00:33:06.170Z,100466.43
2017-11-01T00:35:32.498Z,100465.33
2017-11-01T00:37:58.854Z,100464.70
2017-11-01T00:40:25.890Z,100459.94
2017-11-01T00:42:52.990Z,100453.13
2017-11-01T00:45:19.324Z,100446.77
2017-11-01T00:47:45.654Z,100451.91
2017-11-01T00:50:11.940Z,100451.41
2017-11-01T00:52:39.369Z,100461.73
2017-11-01T00:55:05.699Z,100450.56
2017-11-01T00:57:31.989Z,100443.55
2017-11-01T00:59:58.314Z,100438.28
2017-11-01T01:02:24.604Z,100440.18
2017-11-01T01:04:51.705Z,100440.13
2017-11-01T01:07:18.057Z,100428.94
2017-11-01T01:09:44.365Z,100429.63
2017-11-01T01:12:10.736Z,100428.66
2017-11-01T01:14:37.557Z,100419.71
2017-11-01T01:17:03.845Z,100421.94
2017-11-01T01:19:30.217Z,100420.67
2017-11-01T01:21:57.250Z,100418.45
2017-11-01T01:24:23.513Z,100414.39
2017-11-01T01:26:50.040Z,100412.66
2017-11-01T01:29:16.346Z,100413.75
2017-11-01T01:31:42.692Z,100414.89
2017-11-01T01:34:09.069Z,100415.25
2017-11-01T01:36:36.092Z,100418.39
2017-11-01T01:39:02.484Z,100421.22
2017-11-01T01:41:28.815Z,100414.94
2017-11-01T01:43:55.457Z,100421.47
2017-11-01T01:46:21.884Z,100413.04
2017-11-01T01:48:48.184Z,100413.03
2017-11-01T01:51:14.488Z,100413.88
2017-11-01T01:53:40.808Z,100402.70
2017-11-01T01:56:07.139Z,100394.14
2017-11-01T01:58:34.419Z,100393.03
2017-11-01T02:01:01.502Z,100389.15
2017-11-01T02:03:27.841Z,100389.02
2017-11-01T02:05:54.121Z,100387.67
2017-11-01T02:08:20.431Z,100388.30
2017-11-01T02:10:47.691Z,100383.84
2017-11-01T02:13:14.078Z,100380.91
2017-11-01T02:15:40.345Z,100381.75
2017-11-01T02:18:06.685Z,100373.35
2017-11-01T02:20:33.120Z,100371.08
2017-11-01T02:23:00.217Z,100377.96
2017-11-01T02:25:26.587Z,100371.16
2017-11-01T02:27:53.042Z,100374.97
2017-11-01T02:30:19.452Z,100373.03
2017-11-01T02:32:45.851Z,100366.89
2017-11-01T02:35:12.261Z,100364.59
2017-11-01T02:37:39.340Z,100355.17
2017-11-01T02:40:05.632Z,100350.81
2017-11-01T02:42:32.744Z,100359.44
2017-11-01T02:44:59.253Z,100361.88
2017-11-01T02:47:25.610Z,100363.91
2017-11-01T02:49:51.946Z,100356.92
2017-11-01T02:52:18.287Z,100348.84
2017-11-01T02:54:44.593Z,100345.57
2017-11-01T02:57:10.911Z,100348.61
2017-11-01T02:59:37.270Z,100352.50
2017-11-01T03:02:04.591Z,100349.80
2017-11-01T03:04:30.993Z,100342.27
2017-11-01T03:06:58.103Z,100341.00
2017-11-01T03:09:24.403Z,100346.72
2017-11-01T03:11:51.169Z,100341.00
2017-11-01T03:14:17.507Z,100342.48
2017-11-01T03:16:43.867Z,100342.16
2017-11-01T03:19:10.165Z,100345.08
2017-11-01T03:21:36.460Z,100335.66
2017-11-01T03:24:03.548Z,100343.18
2017-11-01T03:26:29.840Z,100345.28
2017-11-01T03:28:56.907Z,100340.47
2017-11-01T03:31:23.202Z,100349.14
2017-11-01T03:33:50.212Z,100344.23
2017-11-01T03:36:16.574Z,100346.56
2017-11-01T03:38:42.864Z,100347.55
2017-11-01T03:43:35.374Z,100337.03
2017-11-01T03:46:03.294Z,100320.77
2017-11-01T03:48:29.611Z,100329.80
2017-11-01T03:50:55.988Z,100328.35
2017-11-01T03:53:22.274Z,100317.97
2017-11-01T03:55:48.678Z,100328.08
2017-11-01T03:58:15.759Z,100326.52
2017-11-01T04:00:42.113Z,100318.98
2017-11-01T04:03:08.389Z,100305.01
2017-11-01T04:05:35.468Z,100315.43
2017-11-01T04:08:01.828Z,100308.14
2017-11-01T04:10:28.115Z,100325.37
2017-11-01T04:12:54.375Z,100314.81
2017-11-01T04:15:20.673Z,100306.83
2017-11-01T04:17:46.922Z,100310.20
2017-11-01T04:20:13.182Z,100314.14
2017-11-01T04:22:40.238Z,100308.00
2017-11-01T04:25:06.626Z,100307.11
2017-11-01T04:27:33.030Z,100307.00
2017-11-01T04:30:00.118Z,100303.73
2017-11-01T04:32:26.538Z,100272.97
2017-11-01T04:34:52.860Z,100308.64
2017-11-01T04:37:19.204Z,100306.02
2017-11-01T04:39:45.524Z,100304.22
2017-11-01T04:42:11.842Z,100303.02
2017-11-01T04:44:38.921Z,100300.17
2017-11-01T04:47:05.308Z,100295.30
2017-11-01T04:49:32.430Z,100300.27
2017-11-01T04:51:58.784Z,100313.74
2017-11-01T04:54:25.931Z,100308.11
2017-11-01T04:56:52.995Z,100291.69
2017-11-01T04:59:19.399Z,100295.33
2017-11-01T05:01:52.142Z,100290.30
2017-11-01T05:04:18.840Z,100295.45
2017-11-01T05:06:45.958Z,100297.17
2017-11-01T05:09:13.143Z,100295.08
2017-11-01T05:11:40.302Z,100294.16
2017-11-01T05:14:14.057Z,100296.70
2017-11-01T05:16:43.300Z,100294.41
2017-11-01T05:19:12.411Z,100297.75
2017-11-01T05:21:38.763Z,100291.80
2017-11-01T05:24:05.277Z,100291.72
2017-11-01T05:26:31.627Z,100299.14
2017-11-01T05:28:57.948Z,100293.66
2017-11-01T05:31:24.281Z,100288.02
2017-11-01T05:33:50.631Z,100283.37
2017-11-01T05:36:16.943Z,100291.30
2017-11-01T05:38:43.343Z,100292.05
2017-11-01T05:41:09.720Z,100281.55
2017-11-01T05:43:36.105Z,100279.03
2017-11-01T05:46:03.185Z,100272.70
2017-11-01T05:48:29.805Z,100268.70
2017-11-01T05:50:56.943Z,100289.30
2017-11-01T05:53:24.265Z,100272.70
2017-11-01T05:55:50.676Z,100280.45
2017-11-01T05:58:17.003Z,100267.81
2017-11-01T06:00:43.294Z,100282.41
2017-11-01T06:03:10.537Z,100280.13
2017-11-01T06:05:36.842Z,100281.14
2017-11-01T06:08:03.215Z,100278.39
2017-11-01T06:10:30.284Z,100273.84
2017-11-01T06:12:56.941Z,100281.48
2017-11-01T06:17:56.384Z,100281.26
2017-11-01T06:20:22.843Z,100280.11
2017-11-01T06:22:49.233Z,100284.92
2017-11-01T06:25:15.650Z,100271.89
2017-11-01T06:27:42.046Z,100289.81
2017-11-01T06:30:08.444Z,100282.06
2017-11-01T06:32:34.782Z,100310.30
2017-11-01T06:35:01.177Z,100295.81
2017-11-01T06:37:27.545Z,100293.41
2017-11-01T06:39:53.932Z,100292.01
2017-11-01T06:42:21.033Z,100294.55
2017-11-01T06:44:47.505Z,100299.69
2017-11-01T06:47:14.495Z,100294.97
2017-11-01T06:49:40.827Z,100305.34
2017-11-01T06:52:07.232Z,100306.01
2017-11-01T06:54:33.627Z,100301.02
2017-11-01T06:56:59.957Z,100303.48
2017-11-01T06:59:26.301Z,100300.16
2017-11-01T07:01:52.725Z,100293.37
2017-11-01T07:04:19.091Z,100301.21
2017-11-01T07:06:45.416Z,100295.09
2017-11-01T07:09:12.542Z,100291.30
2017-11-01T07:11:38.879Z,100307.95
2017-11-01T07:14:05.986Z,100305.97
2017-11-01T07:16:32.311Z,100303.48
2017-11-01T07:18:58.636Z,100303.89
2017-11-01T07:21:24.946Z,100308.97
2017-11-01T07:23:51.268Z,100311.50
2017-11-01T07:26:18.346Z,100308.84
2017-11-01T07:28:44.632Z,100307.70
2017-11-01T07:31:11.736Z,100303.10
2017-11-01T07:33:38.161Z,100303.69
2017-11-01T07:36:04.569Z,100301.67
2017-11-01T07:38:30.842Z,100297.39
2017-11-01T07:40:57.420Z,100299.88
2017-11-01T07:43:24.473Z,100298.63
2017-11-01T07:45:51.560Z,100301.77
2017-11-01T07:48:17.949Z,100289.50
2017-11-01T07:50:44.287Z,100298.70
2017-11-01T07:53:11.418Z,100293.30
2017-11-01T07:55:37.729Z,100298.48
2017-11-01T07:58:04.106Z,100295.49
2017-11-01T08:00:30.565Z,100288.96
2017-11-01T08:02:56.943Z,100286.02
2017-11-01T08:05:23.309Z,100295.02
2017-11-01T08:07:49.630Z,100294.31
2017-11-01T08:10:16.860Z,100296.28
2017-11-01T08:12:43.209Z,100301.48
2017-11-01T08:15:10.303Z,100290.03
2017-11-01T08:17:36.656Z,100297.20
2017-11-01T08:20:03.083Z,100293.34
2017-11-01T08:22:29.960Z,100294.47
2017-11-01T08:24:57.010Z,100293.88
2017-11-01T08:27:24.108Z,100288.33
2017-11-01T08:29:50.467Z,100296.27
2017-11-01T08:32:17.724Z,100291.52
2017-11-01T08:34:44.055Z,100292.81
2017-11-01T08:37:10.590Z,100295.43
2017-11-01T08:39:37.016Z,100296.45
2017-11-01T08:42:03.373Z,100288.31
2017-11-01T08:44:29.719Z,100298.61
2017-11-01T08:46:56.077Z,100297.27
2017-11-01T08:49:22.448Z,100308.16
2017-11-01T08:51:48.871Z,100299.97
2017-11-01T08:54:15.187Z,100291.58
2017-11-01T08:56:41.669Z,100299.80
2017-11-01T08:59:08.082Z,100294.77
2017-11-01T09:01:41.536Z,100303.70
2017-11-01T09:04:07.855Z,100300.31
2017-11-01T09:06:34.272Z,100304.41
2017-11-01T09:09:01.358Z,100306.75
2017-11-01T09:11:27.704Z,100308.21
2017-11-01T09:13:54.013Z,100305.85
2017-11-01T09:16:20.350Z,100306.34
2017-11-01T09:18:46.730Z,100302.70
2017-11-01T09:21:13.383Z,100297.87
2017-11-01T09:23:40.506Z,100311.00
2017-11-01T09:26:06.862Z,100310.83
2017-11-01T09:28:33.890Z,100311.05
2017-11-01T09:31:01.180Z,100308.63
2017-11-01T09:33:28.256Z,100299.25
2017-11-01T09:35:54.563Z,100305.11
2017-11-01T09:38:21.188Z,100305.54
2017-11-01T09:40:48.256Z,100317.86
2017-11-01T09:43:14.690Z,100309.51
2017-11-01T09:45:40.998Z,100307.59
2017-11-01T09:48:08.134Z,100315.70
2017-11-01T09:50:34.560Z,100309.56
2017-11-01T09:53:00.992Z,100311.97
2017-11-01T09:55:27.323Z,100313.09
2017-11-01T09:57:53.625Z,100311.72
2017-11-01T10:00:20.043Z,100311.58
2017-11-01T10:02:46.405Z,100296.89
2017-11-01T10:05:12.763Z,100305.92
2017-11-01T10:07:46.081Z,100303.20
2017-11-01T10:10:12.491Z,100299.84
2017-11-01T10:12:38.929Z,100290.69
2017-11-01T10:15:05.295Z,100285.27
2017-11-01T10:17:31.679Z,100284.72
2017-11-01T10:19:58.188Z,100281.88
2017-11-01T10:22:24.561Z,100277.02
2017-11-01T10:24:51.640Z,100272.55
2017-11-01T10:27:18.084Z,100274.71
2017-11-01T10:29:44.371Z,100286.66
2017-11-01T10:32:10.833Z,100286.28
2017-11-01T10:34:37.165Z,100275.66
2017-11-01T10:37:03.572Z,100282.99
2017-11-01T10:39:29.939Z,100281.78
2017-11-01T10:41:56.272Z,100283.38
2017-11-01T10:44:22.612Z,100278.42
2017-11-01T10:46:48.969Z,100282.67
2017-11-01T10:49:15.365Z,100278.23
2017-11-01T10:51:41.825Z,100270.14
2017-11-01T10:54:08.169Z,100266.58
2017-11-01T10:56:34.474Z,100270.41
2017-11-01T10:59:00.819Z,100275.23
2017-11-01T11:01:27.172Z,100272.24
2017-11-01T11:03:53.518Z,100265.02
2017-11-01T11:06:19.926Z,100263.74
2017-11-01T11:08:46.265Z,100264.21
2017-11-01T11:11:12.564Z,100261.32
2017-11-01T11:13:38.877Z,100270.41
2017-11-01T11:16:05.251Z,100258.14
2017-11-01T11:18:31.647Z,100264.00
2017-11-01T11:20:57.989Z,100258.66
2017-11-01T11:23:24.346Z,100263.02
2017-11-01T11:25:50.686Z,100254.07
2017-11-01T11:28:16.966Z,100250.98
2017-11-01T11:30:43.382Z,100250.66
2017-11-01T11:33:10.504Z,100265.53
2017-11-01T11:35:36.842Z,100245.83
2017-11-01T11:38:03.155Z,100249.12
2017-11-01T11:40:29.503Z,100247.02
2017-11-01T11:42:55.852Z,100247.37
2017-11-01T11:45:22.231Z,100250.39
2017-11-01T11:47:48.625Z,100251.75
2017-11-01T11:50:15.901Z,100237.66
2017-11-01T11:52:42.191Z,100237.58
2017-11-01T11:55:08.538Z,100240.11
2017-11-01T11:57:35.625Z,100236.02
2017-11-01T12:00:02.004Z,100232.08
2017-11-01T12:02:28.300Z,100221.23
2017-11-01T12:04:54.649Z,100229.05
2017-11-01T12:07:21.141Z,100231.09
2017-11-01T12:09:47.561Z,100204.92
2017-11-01T12:12:13.877Z,100215.84
2017-11-01T12:14:41.020Z,100226.97
2017-11-01T12:17:08.110Z,100220.94
2017-11-01T12:19:34.728Z,100209.05
2017-11-01T12:22:01.098Z,100218.09
2017-11-01T12:24:27.487Z,100211.77
2017-11-01T12:26:54.598Z,100208.06
2017-11-01T12:29:21.153Z,100208.48
2017-11-01T12:31:48.271Z,100196.16
2017-11-01T12:34:14.633Z,100193.47
2017-11-01T12:36:41.697Z,100200.48
2017-11-01T12:39:08.878Z,100191.80
2017-11-01T12:41:35.217Z,100191.12
2017-11-01T12:44:01.569Z,100194.45
2017-11-01T12:46:27.951Z,100194.13
2017-11-01T12:48:54.367Z,100198.62
2017-11-01T12:51:21.526Z,100199.36
2017-11-01T12:53:48.840Z,100195.18
2017-11-01T12:56:15.191Z,100189.52
2017-11-01T12:58:41.770Z,100196.58
2017-11-01T13:01:08.212Z,100195.02
2017-11-01T13:03:34.522Z,100197.97
2017-11-01T13:06:00.915Z,100208.10
2017-11-01T13:08:27.244Z,100218.30
2017-11-01T13:10:53.623Z,100202.25
2017-11-01T13:13:19.974Z,100204.00
2017-11-01T13:15:46.301Z,100204.76
2017-11-01T13:18:12.695Z,100204.55
2017-11-01T13:20:39.842Z,100201.17
2017-11-01T13:23:06.931Z,100194.14
2017-11-01T13:25:33.274Z,100203.22
2017-11-01T13:27:59.614Z,100189.09
2017-11-01T13:30:26.093Z,100190.97
2017-11-01T13:32:53.168Z,100196.89
2017-11-01T13:35:19.511Z,100194.08
2017-11-01T13:37:45.777Z,100195.67
2017-11-01T13:40:12.107Z,100193.36
2017-11-01T13:42:38.480Z,100179.04
2017-11-01T13:45:05.523Z,100181.34
2017-11-01T13:47:33.496Z,100174.00
2017-11-01T13:50:00.778Z,100180.73
2017-11-01T13:52:27.158Z,100183.27
2017-11-01T13:54:53.462Z,100181.74
2017-11-01T13:57:19.812Z,100171.85
2017-11-01T13:59:46.214Z,100176.97
2017-11-01T14:02:12.550Z,100169.05
2017-11-01T14:04:38.906Z,100181.74
2017-11-01T14:07:05.281Z,100186.67
2017-11-01T14:09:31.574Z,100179.33
2017-11-01T14:11:57.942Z,100182.25
2017-11-01T14:14:24.360Z,100186.30
2017-11-01T14:16:50.759Z,100189.97
2017-11-01T14:19:17.294Z,100183.19
2017-11-01T14:21:43.697Z,100183.02
2017-11-01T14:24:10.225Z,100177.02
2017-11-01T14:26:36.643Z,100186.80
2017-11-01T14:29:03.051Z,100176.37
2017-11-01T14:31:29.409Z,100173.67
2017-11-01T14:33:56.509Z,100186.66
2017-11-01T14:36:23.118Z,100187.23
2017-11-01T14:38:49.457Z,100183.30
2017-11-01T14:41:15.854Z,100172.16
2017-11-01T14:43:43.071Z,100182.81
2017-11-01T14:46:09.402Z,100177.08
2017-11-01T14:48:35.823Z,100177.30
2017-11-01T14:51:02.268Z,100173.14
2017-11-01T14:53:28.682Z,100167.51
2017-11-01T14:55:55.143Z,100161.01
2017-11-01T14:58:21.565Z,100164.05
2017-11-01T15:00:47.899Z,100162.91
2017-11-01T15:03:14.259Z,100154.23
2017-11-01T15:05:41.350Z,100157.27
2017-11-01T15:08:07.742Z,100159.37
2017-11-01T15:10:34.740Z,100157.66
2017-11-01T15:13:01.073Z,100145.37
2017-11-01T15:15:27.386Z,100160.86
2017-11-01T15:17:53.710Z,100150.50
2017-11-01T15:20:20.067Z,100151.50
2017-11-01T15:22:46.454Z,100159.56
2017-11-01T15:25:13.907Z,100157.55
2017-11-01T15:27:41.039Z,100162.08
2017-11-01T15:30:07.430Z,100160.12
2017-11-01T15:32:33.773Z,100165.11
2017-11-01T15:35:00.123Z,100162.67
2017-11-01T15:37:26.494Z,100161.06
2017-11-01T15:39:53.542Z,100161.73
2017-11-01T15:42:20.618Z,100171.52
2017-11-01T15:44:47.739Z,100166.27
2017-11-01T15:47:14.832Z,100167.73
2017-11-01T15:49:41.183Z,100173.07
2017-11-01T15:52:07.558Z,100172.85
2017-11-01T15:54:33.970Z,100170.53
2017-11-01T15:57:01.203Z,100165.48
2017-11-01T15:59:27.530Z,100171.15
2017-11-01T16:01:53.814Z,100168.61
2017-11-01T16:04:20.153Z,100159.89
2017-11-01T16:06:46.478Z,100158.53
2017-11-01T16:09:12.812Z,100171.88
2017-11-01T16:11:39.176Z,100169.41
2017-11-01T16:14:05.647Z,100176.30
2017-11-01T16:16:32.733Z,100181.06
2017-11-01T16:18:59.073Z,100180.74
2017-11-01T16:21:26.477Z,100182.92
2017-11-01T16:23:53.563Z,100184.51
2017-11-01T16:26:19.885Z,100184.52
2017-11-01T16:28:47.174Z,100183.95
2017-11-01T16:31:13.523Z,100184.77
2017-11-01T16:33:40.114Z,100183.14
2017-11-01T16:36:06.508Z,100184.89
2017-11-01T16:38:32.808Z,100181.44
2017-11-01T16:40:59.247Z,100179.42
2017-11-01T16:43:25.585Z,100190.25
2017-11-01T16:45:52.010Z,100193.39
2017-11-01T16:48:18.344Z,100195.19
2017-11-01T16:50:44.699Z,100183.14
2017-11-01T16:53:11.029Z,100183.37
2017-11-01T16:55:37.346Z,100188.80
2017-11-01T16:58:03.709Z,100188.11
2017-11-01T17:00:30.793Z,100186.69
2017-11-01T17:02:57.228Z,100185.38
2017-11-01T17:05:23.677Z,100176.50
2017-11-01T17:07:50.017Z,100176.76
2017-11-01T17:10:17.109Z,100170.30
2017-11-01T17:12:44.367Z,100171.77
2017-11-01T17:15:11.401Z,100162.77
2017-11-01T17:17:38.508Z,100153.44
2017-11-01T17:20:04.887Z,100144.18
2017-11-01T17:22:32.136Z,100150.31
2017-11-01T17:24:59.420Z,100150.42
2017-11-01T17:27:25.786Z,100157.20
2017-11-01T17:29:52.142Z,100147.65
2017-11-01T17:32:18.591Z,100146.64
2017-11-01T17:34:45.688Z,100142.81
2017-11-01T17:37:12.072Z,100139.50
2017-11-01T17:39:39.182Z,100133.14
2017-11-01T17:42:05.640Z,100131.09
2017-11-01T17:44:32.081Z,100126.98
2017-11-01T17:46:59.401Z,100124.73
2017-11-01T17:49:25.703Z,100136.19
2017-11-01T17:51:52.159Z,100132.25
2017-11-01T17:54:22.065Z,100130.94
2017-11-01T17:56:48.465Z,100139.55
2017-11-01T17:59:15.578Z,100153.00
2017-11-01T18:01:41.940Z,100148.07
2017-11-01T18:04:09.001Z,100157.19
2017-11-01T18:06:35.952Z,100159.55
2017-11-01T18:09:02.334Z,100160.56
2017-11-01T18:11:28.688Z,100160.98
2017-11-01T18:13:56.250Z,100160.56
2017-11-01T18:16:23.387Z,100152.39
2017-11-01T18:18:49.748Z,100142.25
2017-11-01T18:21:16.877Z,100149.77
2017-11-01T18:23:43.939Z,100138.03
2017-11-01T18:26:11.011Z,100134.98
2017-11-01T18:28:37.417Z,100135.53
2017-11-01T18:31:04.575Z,100071.80
2017-11-01T18:33:31.617Z,100124.68
2017-11-01T18:35:58.620Z,100131.80
2017-11-01T18:38:25.026Z,100125.34
2017-11-01T18:40:51.728Z,100129.55
2017-11-01T18:43:18.290Z,100128.36
2017-11-01T18:45:44.657Z,100133.36
2017-11-01T18:48:11.238Z,100134.23
2017-11-01T18:50:38.426Z,100130.62
2017-11-01T18:53:04.859Z,100129.52
2017-11-01T18:55:31.218Z,100123.72
2017-11-01T18:57:57.579Z,100120.56
2017-11-01T19:00:23.925Z,100111.91
2017-11-01T19:02:50.994Z,100102.58
2017-11-01T19:05:17.403Z,100100.83
2017-11-01T19:07:43.827Z,100088.13
2017-11-01T19:10:10.271Z,100093.99
2017-11-01T19:12:37.533Z,100089.48
2017-11-01T19:15:05.625Z,100084.19
2017-11-01T19:17:32.274Z,100089.91
2017-11-01T19:19:58.640Z,100087.39
2017-11-01T19:22:25.340Z,100093.20
2017-11-01T19:24:51.682Z,100092.25
2017-11-01T19:27:18.160Z,100087.28
2017-11-01T19:29:44.498Z,100087.95
2017-11-01T19:32:10.970Z,100090.40
2017-11-01T19:34:37.394Z,100090.51
2017-11-01T19:37:03.876Z,100098.17
2017-11-01T19:39:30.741Z,100100.64
2017-11-01T19:41:57.928Z,100104.30
2017-11-01T19:44:24.983Z,100101.45
2017-11-01T19:46:51.481Z,100104.91
2017-11-01T19:49:19.013Z,100103.41
2017-11-01T19:51:45.481Z,100101.14
2017-11-01T19:54:12.777Z,100096.95
2017-11-01T19:56:39.343Z,100098.37
2017-11-01T19:59:05.866Z,100095.27
2017-11-01T20:01:32.373Z,100093.38
2017-11-01T20:03:58.910Z,100082.56
2017-11-01T20:06:25.752Z,100079.15
2017-11-01T20:08:52.152Z,100072.05
2017-11-01T20:11:18.879Z,100076.77
2017-11-01T20:13:46.134Z,100084.18
2017-11-01T20:16:12.827Z,100082.45
2017-11-01T20:18:39.308Z,100087.53
2017-11-01T20:21:06.547Z,100083.81
2017-11-01T20:23:33.168Z,100076.62
2017-11-01T20:25:59.659Z,100081.83
2017-11-01T20:28:26.103Z,100074.93
2017-11-01T20:30:52.507Z,100081.86
2017-11-01T20:33:19.982Z,100076.14
2017-11-01T20:35:47.325Z,100071.77
2017-11-01T20:38:14.644Z,100075.09
2017-11-01T20:40:42.035Z,100073.09
2017-11-01T20:43:10.161Z,100069.00
2017-11-01T20:45:36.669Z,100071.11
2017-11-01T20:48:03.175Z,100068.25
2017-11-01T20:50:29.887Z,100064.59
2017-11-01T20:53:01.595Z,100064.59
2017-11-01T20:55:28.199Z,100060.76
2017-11-01T20:57:54.844Z,100062.49
2017-11-01T21:00:21.967Z,100057.55
2017-11-01T21:02:48.645Z,100050.72
2017-11-01T21:05:16.414Z,100052.52
2017-11-01T21:07:44.016Z,100052.34
2017-11-01T21:10:12.085Z,100047.80
2017-11-01T21:12:38.609Z,100046.52
2017-11-01T21:15:05.011Z,100039.84
2017-11-01T21:17:32.348Z,100035.53
2017-11-01T21:19:59.095Z,100039.67
2017-11-01T21:22:26.594Z,100040.19
2017-11-01T21:24:53.141Z,100034.97
2017-11-01T21:27:19.749Z,100036.36
2017-11-01T21:29:46.896Z,100033.31
2017-11-01T21:32:14.232Z,100030.89
2017-11-01T21:34:40.668Z,100028.00
2017-11-01T21:37:07.026Z,100030.84
2017-11-01T21:39:33.383Z,100039.84
2017-11-01T21:41:59.689Z,100041.42
2017-11-01T21:44:26.044Z,100036.36
2017-11-01T21:46:52.407Z,100030.92
2017-11-01T21:49:18.772Z,100028.29
2017-11-01T21:51:46.010Z,100018.55
2017-11-01T21:54:12.374Z,100025.19
2017-11-01T21:56:38.735Z,100017.09
2017-11-01T21:59:05.102Z,100017.66
2017-11-01T22:01:31.398Z,100008.77
2017-11-01T22:03:57.794Z,100013.53
2017-11-01T22:06:24.883Z,100009.73
2017-11-01T22:08:51.247Z,100010.68
2017-11-01T22:11:18.354Z,100000.66
2017-11-01T22:13:44.637Z,99996.41
2017-11-01T22:16:11.716Z,99992.04
2017-11-01T22:18:38.584Z,100002.81
2017-11-01T22:21:05.077Z,100008.05
2017-11-01T22:23:31.613Z,100003.33
2017-11-01T22:25:57.969Z,100010.05
2017-11-01T22:28:24.386Z,100004.46
2017-11-01T22:30:50.715Z,100009.53
2017-11-01T22:33:17.019Z,100011.56
2017-11-01T22:35:44.085Z,100013.18
2017-11-01T22:38:11.192Z,100003.20
2017-11-01T22:40:37.496Z,99999.61
2017-11-01T22:43:03.856Z,99995.64
2017-11-01T22:45:30.411Z,99989.34
2017-11-01T22:47:58.022Z,99983.00
2017-11-01T22:50:24.471Z,99982.78
2017-11-01T22:52:50.792Z,99976.59
2017-11-01T22:55:17.115Z,99969.49
2017-11-01T22:57:43.571Z,99966.49
2017-11-01T23:00:10.065Z,99963.28
2017-11-01T23:02:36.589Z,99958.57
2017-11-01T23:05:02.951Z,99961.13
2017-11-01T23:07:29.417Z,99955.42
2017-11-01T23:09:55.707Z,99959.27
2017-11-01T23:12:22.117Z,99945.58
2017-11-01T23:14:49.273Z,99944.78
2017-11-01T23:17:16.351Z,99947.75
2017-11-01T23:19:42.814Z,99937.70
2017-11-01T23:22:09.225Z,99940.84
2017-11-01T23:24:35.615Z,99942.77
2017-11-01T23:27:02.682Z,99939.78
2017-11-01T23:29:29.132Z,99937.78
2017-11-01T23:31:55.528Z,99929.28
2017-11-01T23:34:22.710Z,99929.05
2017-11-01T23:36:49.130Z,99919.29
2017-11-01T23:39:15.430Z,99922.95
2017-11-01T23:41:41.905Z,99923.10
2017-11-01T23:44:08.312Z,99911.31
2017-11-01T23:46:34.784Z,99904.52
2017-11-01T23:49:01.124Z,99907.37
2017-11-01T23:51:27.395Z,99908.63
2017-11-01T23:53:53.968Z,99905.50
2017-11-01T23:56:20.294Z,99903.55
2017-11-01T23:58:46.610Z,99902.41
